sensor_id;sensor_type;location;lat;lon;timestamp;P1;durP1;ratioP1;P2;durP2;ratioP2
71566;SDS011;59403;47.456;19.120;2022-11-15T00:01:33;40.33;;;16.35;;
71566;SDS011;59403;47.456;19.120;2022-11-15T00:04:02;38.53;;;16.47;;
71566;SDS011;59403;47.456;19.120;2022-11-15T00:06:29;37.17;;;15.05;;
71566;SDS011;59403;47.456;19.120;2022-11-15T00:08:58;37.22;;;15.80;;
71566;SDS011;59403;47.456;19.120;2022-11-15T00:11:26;34.30;;;15.55;;
71566;SDS011;59403;47.456;19.120;2022-11-15T00:13:54;32.35;;;15.27;;
71566;SDS011;59403;47.456;19.120;2022-11-15T00:16:22;32.40;;;16.17;;
71566;SDS011;59403;47.456;19.120;2022-11-15T00:18:49;34.13;;;14.77;;
71566;SDS011;59403;47.456;19.120;2022-11-15T00:21:17;31.80;;;15.48;;
71566;SDS011;59403;47.456;19.120;2022-11-15T00:23:44;37.10;;;15.88;;
71566;SDS011;59403;47.456;19.120;2022-11-15T00:26:13;33.63;;;15.30;;
71566;SDS011;59403;47.456;19.120;2022-11-15T00:28:41;39.70;;;16.33;;
71566;SDS011;59403;47.456;19.120;2022-11-15T00:31:09;31.33;;;14.85;;
71566;SDS011;59403;47.456;19.120;2022-11-15T00:33:38;34.97;;;15.20;;
71566;SDS011;59403;47.456;19.120;2022-11-15T00:36:05;35.10;;;16.25;;
71566;SDS011;59403;47.456;19.120;2022-11-15T00:38:35;35.58;;;15.82;;
71566;SDS011;59403;47.456;19.120;2022-11-15T00:41:03;32.80;;;14.37;;
71566;SDS011;59403;47.456;19.120;2022-11-15T00:43:33;33.85;;;15.13;;
71566;SDS011;59403;47.456;19.120;2022-11-15T00:46:00;36.40;;;14.05;;
71566;SDS011;59403;47.456;19.120;2022-11-15T00:48:27;38.38;;;15.55;;
71566;SDS011;59403;47.456;19.120;2022-11-15T00:50:54;38.28;;;15.70;;
71566;SDS011;59403;47.456;19.120;2022-11-15T00:53:21;35.43;;;14.60;;
71566;SDS011;59403;47.456;19.120;2022-11-15T00:55:48;37.00;;;15.23;;
71566;SDS011;59403;47.456;19.120;2022-11-15T00:58:14;39.10;;;15.15;;
71566;SDS011;59403;47.456;19.120;2022-11-15T01:00:43;32.80;;;14.93;;
71566;SDS011;59403;47.456;19.120;2022-11-15T01:03:09;32.92;;;15.07;;
71566;SDS011;59403;47.456;19.120;2022-11-15T01:05:37;35.70;;;15.23;;
71566;SDS011;59403;47.456;19.120;2022-11-15T01:08:04;35.58;;;15.65;;
71566;SDS011;59403;47.456;19.120;2022-11-15T01:10:31;34.92;;;14.90;;
71566;SDS011;59403;47.456;19.120;2022-11-15T01:12:58;32.92;;;14.00;;
71566;SDS011;59403;47.456;19.120;2022-11-15T01:15:25;31.55;;;14.10;;
71566;SDS011;59403;47.456;19.120;2022-11-15T01:17:53;32.40;;;13.77;;
71566;SDS011;59403;47.456;19.120;2022-11-15T01:20:20;31.05;;;13.95;;
71566;SDS011;59403;47.456;19.120;2022-11-15T01:22:47;29.83;;;14.60;;
71566;SDS011;59403;47.456;19.120;2022-11-15T01:25:14;29.87;;;14.10;;
71566;SDS011;59403;47.456;19.120;2022-11-15T01:27:41;29.17;;;12.75;;
71566;SDS011;59403;47.456;19.120;2022-11-15T01:30:08;30.00;;;13.53;;
71566;SDS011;59403;47.456;19.120;2022-11-15T01:32:35;30.75;;;13.80;;
71566;SDS011;59403;47.456;19.120;2022-11-15T01:35:04;32.00;;;14.45;;
71566;SDS011;59403;47.456;19.120;2022-11-15T01:37:31;30.20;;;14.65;;
71566;SDS011;59403;47.456;19.120;2022-11-15T01:39:59;32.55;;;14.32;;
71566;SDS011;59403;47.456;19.120;2022-11-15T01:42:25;31.93;;;14.17;;
71566;SDS011;59403;47.456;19.120;2022-11-15T01:44:53;30.65;;;14.45;;
71566;SDS011;59403;47.456;19.120;2022-11-15T01:47:20;30.70;;;14.23;;
71566;SDS011;59403;47.456;19.120;2022-11-15T01:49:51;29.92;;;13.75;;
71566;SDS011;59403;47.456;19.120;2022-11-15T01:52:24;30.35;;;13.77;;
71566;SDS011;59403;47.456;19.120;2022-11-15T01:54:55;32.40;;;14.60;;
71566;SDS011;59403;47.456;19.120;2022-11-15T01:57:25;31.20;;;14.02;;
71566;SDS011;59403;47.456;19.120;2022-11-15T01:59:52;31.95;;;14.40;;
71566;SDS011;59403;47.456;19.120;2022-11-15T05:52:44;26.98;;;14.18;;
71566;SDS011;59403;47.456;19.120;2022-11-15T06:04:21;30.17;;;14.18;;
71566;SDS011;59403;47.456;19.120;2022-11-15T06:06:49;31.42;;;14.18;;
71566;SDS011;59403;47.456;19.120;2022-11-15T06:09:33;28.55;;;13.48;;
71566;SDS011;59403;47.456;19.120;2022-11-15T06:12:03;31.92;;;14.75;;
71566;SDS011;59403;47.456;19.120;2022-11-15T06:14:45;31.57;;;14.50;;
71566;SDS011;59403;47.456;19.120;2022-11-15T06:17:12;31.85;;;14.68;;
71566;SDS011;59403;47.456;19.120;2022-11-15T06:19:53;31.08;;;18.92;;
71566;SDS011;59403;47.456;19.120;2022-11-15T06:29:24;32.83;;;14.93;;
71566;SDS011;59403;47.456;19.120;2022-11-15T06:31:53;30.23;;;14.87;;
71566;SDS011;59403;47.456;19.120;2022-11-15T06:34:20;32.22;;;15.27;;
71566;SDS011;59403;47.456;19.120;2022-11-15T06:36:47;29.67;;;14.55;;
71566;SDS011;59403;47.456;19.120;2022-11-15T06:39:15;32.53;;;15.60;;
71566;SDS011;59403;47.456;19.120;2022-11-15T06:41:42;31.83;;;15.80;;
71566;SDS011;59403;47.456;19.120;2022-11-15T06:44:23;29.80;;;14.65;;
71566;SDS011;59403;47.456;19.120;2022-11-15T06:46:54;32.28;;;15.32;;
71566;SDS011;59403;47.456;19.120;2022-11-15T06:49:23;30.27;;;15.95;;
71566;SDS011;59403;47.456;19.120;2022-11-15T06:51:53;32.28;;;16.25;;
71566;SDS011;59403;47.456;19.120;2022-11-15T06:54:20;29.53;;;15.70;;
71566;SDS011;59403;47.456;19.120;2022-11-15T06:56:47;33.60;;;16.23;;
71566;SDS011;59403;47.456;19.120;2022-11-15T06:59:17;34.03;;;16.98;;
71566;SDS011;59403;47.456;19.120;2022-11-15T07:01:45;32.08;;;15.75;;
71566;SDS011;59403;47.456;19.120;2022-11-15T07:04:12;31.05;;;16.25;;
71566;SDS011;59403;47.456;19.120;2022-11-15T07:06:39;29.97;;;15.50;;
71566;SDS011;59403;47.456;19.120;2022-11-15T07:09:06;34.22;;;15.63;;
71566;SDS011;59403;47.456;19.120;2022-11-15T07:11:32;34.67;;;16.52;;
71566;SDS011;59403;47.456;19.120;2022-11-15T07:14:00;35.28;;;17.23;;
71566;SDS011;59403;47.456;19.120;2022-11-15T07:16:26;34.40;;;16.33;;
71566;SDS011;59403;47.456;19.120;2022-11-15T07:18:55;34.60;;;16.87;;
71566;SDS011;59403;47.456;19.120;2022-11-15T07:21:22;34.28;;;17.15;;
71566;SDS011;59403;47.456;19.120;2022-11-15T07:23:49;37.08;;;18.23;;
71566;SDS011;59403;47.456;19.120;2022-11-15T07:26:15;37.40;;;17.20;;
71566;SDS011;59403;47.456;19.120;2022-11-15T07:28:43;34.25;;;17.75;;
71566;SDS011;59403;47.456;19.120;2022-11-15T07:31:10;33.13;;;17.87;;
71566;SDS011;59403;47.456;19.120;2022-11-15T07:33:37;36.38;;;18.73;;
71566;SDS011;59403;47.456;19.120;2022-11-15T07:36:06;35.25;;;18.42;;
71566;SDS011;59403;47.456;19.120;2022-11-15T07:38:34;39.28;;;19.58;;
71566;SDS011;59403;47.456;19.120;2022-11-15T07:41:02;37.45;;;18.33;;
71566;SDS011;59403;47.456;19.120;2022-11-15T07:43:31;38.00;;;20.37;;
71566;SDS011;59403;47.456;19.120;2022-11-15T07:45:59;36.50;;;18.67;;
71566;SDS011;59403;47.456;19.120;2022-11-15T07:48:30;36.65;;;20.20;;
71566;SDS011;59403;47.456;19.120;2022-11-15T07:50:57;38.70;;;19.95;;
71566;SDS011;59403;47.456;19.120;2022-11-15T07:53:26;39.13;;;19.83;;
71566;SDS011;59403;47.456;19.120;2022-11-15T07:55:53;34.10;;;18.53;;
71566;SDS011;59403;47.456;19.120;2022-11-15T07:58:20;40.30;;;18.50;;
71566;SDS011;59403;47.456;19.120;2022-11-15T08:00:47;43.45;;;19.70;;
71566;SDS011;59403;47.456;19.120;2022-11-15T08:03:15;40.97;;;19.55;;
71566;SDS011;59403;47.456;19.120;2022-11-15T08:05:43;38.22;;;18.87;;
71566;SDS011;59403;47.456;19.120;2022-11-15T08:08:17;36.50;;;19.50;;
71566;SDS011;59403;47.456;19.120;2022-11-15T08:10:45;38.05;;;19.17;;
71566;SDS011;59403;47.456;19.120;2022-11-15T08:13:12;37.13;;;19.45;;
71566;SDS011;59403;47.456;19.120;2022-11-15T08:15:39;40.50;;;20.02;;
71566;SDS011;59403;47.456;19.120;2022-11-15T08:18:09;41.05;;;20.15;;
71566;SDS011;59403;47.456;19.120;2022-11-15T08:20:37;38.27;;;19.37;;
71566;SDS011;59403;47.456;19.120;2022-11-15T08:23:05;40.40;;;19.98;;
71566;SDS011;59403;47.456;19.120;2022-11-15T08:25:32;41.28;;;21.00;;
71566;SDS011;59403;47.456;19.120;2022-11-15T08:28:02;42.88;;;21.17;;
71566;SDS011;59403;47.456;19.120;2022-11-15T08:30:33;42.50;;;20.48;;
71566;SDS011;59403;47.456;19.120;2022-11-15T08:33:02;43.30;;;22.53;;
71566;SDS011;59403;47.456;19.120;2022-11-15T08:35:29;38.17;;;20.37;;
71566;SDS011;59403;47.456;19.120;2022-11-15T08:37:57;41.88;;;20.62;;
71566;SDS011;59403;47.456;19.120;2022-11-15T08:40:23;43.33;;;21.75;;
71566;SDS011;59403;47.456;19.120;2022-11-15T08:42:52;44.50;;;22.40;;
71566;SDS011;59403;47.456;19.120;2022-11-15T08:45:20;47.40;;;22.00;;
71566;SDS011;59403;47.456;19.120;2022-11-15T08:47:47;41.75;;;21.75;;
71566;SDS011;59403;47.456;19.120;2022-11-15T08:50:14;43.03;;;22.75;;
71566;SDS011;59403;47.456;19.120;2022-11-15T08:52:42;45.50;;;23.58;;
71566;SDS011;59403;47.456;19.120;2022-11-15T08:55:09;43.05;;;21.98;;
71566;SDS011;59403;47.456;19.120;2022-11-15T08:57:36;47.03;;;22.57;;
71566;SDS011;59403;47.456;19.120;2022-11-15T09:00:03;41.50;;;22.08;;
71566;SDS011;59403;47.456;19.120;2022-11-15T09:02:32;44.67;;;21.65;;
71566;SDS011;59403;47.456;19.120;2022-11-15T09:04:59;45.00;;;22.48;;
71566;SDS011;59403;47.456;19.120;2022-11-15T09:07:26;42.90;;;22.50;;
71566;SDS011;59403;47.456;19.120;2022-11-15T09:09:57;45.30;;;22.90;;
71566;SDS011;59403;47.456;19.120;2022-11-15T09:12:24;42.95;;;21.87;;
71566;SDS011;59403;47.456;19.120;2022-11-15T09:14:51;44.33;;;22.20;;
71566;SDS011;59403;47.456;19.120;2022-11-15T09:17:18;48.05;;;23.23;;
71566;SDS011;59403;47.456;19.120;2022-11-15T09:19:46;49.72;;;23.12;;
71566;SDS011;59403;47.456;19.120;2022-11-15T09:22:13;45.07;;;22.50;;
71566;SDS011;59403;47.456;19.120;2022-11-15T09:24:40;47.95;;;22.67;;
71566;SDS011;59403;47.456;19.120;2022-11-15T09:27:07;48.15;;;25.83;;
71566;SDS011;59403;47.456;19.120;2022-11-15T09:29:34;50.47;;;25.00;;
71566;SDS011;59403;47.456;19.120;2022-11-15T09:32:01;45.45;;;23.08;;
71566;SDS011;59403;47.456;19.120;2022-11-15T09:34:28;44.83;;;22.67;;
71566;SDS011;59403;47.456;19.120;2022-11-15T09:36:56;49.10;;;23.08;;
71566;SDS011;59403;47.456;19.120;2022-11-15T09:39:23;43.70;;;23.23;;
71566;SDS011;59403;47.456;19.120;2022-11-15T09:41:58;44.33;;;23.77;;
71566;SDS011;59403;47.456;19.120;2022-11-15T09:45:03;44.13;;;22.80;;
71566;SDS011;59403;47.456;19.120;2022-11-15T09:47:58;48.17;;;23.37;;
71566;SDS011;59403;47.456;19.120;2022-11-15T09:50:35;44.35;;;22.62;;
71566;SDS011;59403;47.456;19.120;2022-11-15T09:53:10;42.70;;;22.90;;
71566;SDS011;59403;47.456;19.120;2022-11-15T09:55:41;45.12;;;23.30;;
71566;SDS011;59403;47.456;19.120;2022-11-15T09:58:17;41.95;;;22.50;;
71566;SDS011;59403;47.456;19.120;2022-11-15T10:00:50;43.67;;;23.03;;
71566;SDS011;59403;47.456;19.120;2022-11-15T10:03:21;43.92;;;22.70;;
71566;SDS011;59403;47.456;19.120;2022-11-15T10:05:50;46.40;;;23.17;;
71566;SDS011;59403;47.456;19.120;2022-11-15T10:08:28;42.50;;;21.67;;
71566;SDS011;59403;47.456;19.120;2022-11-15T10:11:04;40.72;;;21.92;;
71566;SDS011;59403;47.456;19.120;2022-11-15T10:13:35;37.80;;;20.53;;
71566;SDS011;59403;47.456;19.120;2022-11-15T10:16:12;38.75;;;20.40;;
71566;SDS011;59403;47.456;19.120;2022-11-15T10:18:49;35.42;;;18.70;;
71566;SDS011;59403;47.456;19.120;2022-11-15T10:21:21;36.83;;;20.75;;
71566;SDS011;59403;47.456;19.120;2022-11-15T10:23:55;37.05;;;20.40;;
71566;SDS011;59403;47.456;19.120;2022-11-15T10:26:22;38.43;;;21.23;;
71566;SDS011;59403;47.456;19.120;2022-11-15T10:28:57;37.58;;;19.45;;
71566;SDS011;59403;47.456;19.120;2022-11-15T10:31:24;38.03;;;19.70;;
71566;SDS011;59403;47.456;19.120;2022-11-15T10:33:56;39.92;;;20.77;;
71566;SDS011;59403;47.456;19.120;2022-11-15T10:36:44;36.75;;;19.55;;
71566;SDS011;59403;47.456;19.120;2022-11-15T10:39:13;37.23;;;19.90;;
71566;SDS011;59403;47.456;19.120;2022-11-15T10:41:41;35.80;;;20.45;;
71566;SDS011;59403;47.456;19.120;2022-11-15T10:47:05;37.10;;;20.10;;
71566;SDS011;59403;47.456;19.120;2022-11-15T10:49:55;34.67;;;19.33;;
71566;SDS011;59403;47.456;19.120;2022-11-15T10:52:26;39.20;;;19.90;;
71566;SDS011;59403;47.456;19.120;2022-11-15T10:54:57;37.30;;;20.17;;
71566;SDS011;59403;47.456;19.120;2022-11-15T10:57:28;41.00;;;22.42;;
71566;SDS011;59403;47.456;19.120;2022-11-15T10:59:59;38.33;;;20.80;;
71566;SDS011;59403;47.456;19.120;2022-11-15T11:02:31;40.00;;;21.40;;
71566;SDS011;59403;47.456;19.120;2022-11-15T11:05:00;37.70;;;21.27;;
71566;SDS011;59403;47.456;19.120;2022-11-15T11:07:29;41.20;;;21.62;;
71566;SDS011;59403;47.456;19.120;2022-11-15T11:10:00;39.15;;;21.20;;
71566;SDS011;59403;47.456;19.120;2022-11-15T11:12:30;38.72;;;21.90;;
71566;SDS011;59403;47.456;19.120;2022-11-15T11:14:58;44.42;;;22.98;;
71566;SDS011;59403;47.456;19.120;2022-11-15T11:17:32;42.70;;;22.37;;
71566;SDS011;59403;47.456;19.120;2022-11-15T11:20:10;43.42;;;22.55;;
71566;SDS011;59403;47.456;19.120;2022-11-15T11:22:56;42.08;;;22.75;;
71566;SDS011;59403;47.456;19.120;2022-11-15T11:25:32;43.63;;;22.08;;
71566;SDS011;59403;47.456;19.120;2022-11-15T11:28:05;47.85;;;23.38;;
71566;SDS011;59403;47.456;19.120;2022-11-15T11:30:43;42.50;;;23.07;;
71566;SDS011;59403;47.456;19.120;2022-11-15T11:33:19;40.97;;;22.95;;
71566;SDS011;59403;47.456;19.120;2022-11-15T11:35:54;47.03;;;24.02;;
71566;SDS011;59403;47.456;19.120;2022-11-15T11:38:32;43.92;;;22.85;;
71566;SDS011;59403;47.456;19.120;2022-11-15T11:41:13;44.15;;;23.52;;
71566;SDS011;59403;47.456;19.120;2022-11-15T11:43:50;45.17;;;23.13;;
71566;SDS011;59403;47.456;19.120;2022-11-15T11:46:30;43.63;;;23.12;;
71566;SDS011;59403;47.456;19.120;2022-11-15T11:49:12;46.92;;;24.17;;
71566;SDS011;59403;47.456;19.120;2022-11-15T11:51:43;43.03;;;22.80;;
71566;SDS011;59403;47.456;19.120;2022-11-15T11:54:17;43.85;;;23.38;;
71566;SDS011;59403;47.456;19.120;2022-11-15T11:56:50;47.10;;;23.73;;
71566;SDS011;59403;47.456;19.120;2022-11-15T11:59:22;46.13;;;23.35;;
71566;SDS011;59403;47.456;19.120;2022-11-15T12:01:55;41.67;;;22.00;;
71566;SDS011;59403;47.456;19.120;2022-11-15T12:04:24;46.25;;;24.15;;
71566;SDS011;59403;47.456;19.120;2022-11-15T12:06:56;46.63;;;24.42;;
71566;SDS011;59403;47.456;19.120;2022-11-15T12:09:29;45.03;;;22.73;;
71566;SDS011;59403;47.456;19.120;2022-11-15T12:12:02;44.90;;;23.52;;
71566;SDS011;59403;47.456;19.120;2022-11-15T12:14:36;45.97;;;24.87;;
71566;SDS011;59403;47.456;19.120;2022-11-15T12:17:09;43.75;;;23.23;;
71566;SDS011;59403;47.456;19.120;2022-11-15T12:19:37;42.25;;;21.95;;
71566;SDS011;59403;47.456;19.120;2022-11-15T12:22:04;49.63;;;23.70;;
71566;SDS011;59403;47.456;19.120;2022-11-15T12:24:39;48.72;;;23.80;;
71566;SDS011;59403;47.456;19.120;2022-11-15T12:27:15;43.92;;;23.23;;
71566;SDS011;59403;47.456;19.120;2022-11-15T12:29:46;45.03;;;22.05;;
71566;SDS011;59403;47.456;19.120;2022-11-15T12:32:20;44.47;;;21.75;;
71566;SDS011;59403;47.456;19.120;2022-11-15T12:34:52;44.13;;;22.97;;
71566;SDS011;59403;47.456;19.120;2022-11-15T12:37:33;41.88;;;22.15;;
71566;SDS011;59403;47.456;19.120;2022-11-15T12:40:17;41.88;;;21.67;;
71566;SDS011;59403;47.456;19.120;2022-11-15T12:42:58;42.75;;;22.00;;
71566;SDS011;59403;47.456;19.120;2022-11-15T12:45:28;42.47;;;22.05;;
71566;SDS011;59403;47.456;19.120;2022-11-15T12:48:21;43.73;;;23.17;;
71566;SDS011;59403;47.456;19.120;2022-11-15T12:57:27;52.25;;;24.85;;
71566;SDS011;59403;47.456;19.120;2022-11-15T13:03:28;52.33;;;25.10;;
71566;SDS011;59403;47.456;19.120;2022-11-15T13:06:05;49.00;;;24.27;;
71566;SDS011;59403;47.456;19.120;2022-11-15T13:08:36;51.47;;;24.17;;
71566;SDS011;59403;47.456;19.120;2022-11-15T13:17:22;50.10;;;24.27;;
71566;SDS011;59403;47.456;19.120;2022-11-15T13:22:49;47.22;;;22.05;;
71566;SDS011;59403;47.456;19.120;2022-11-15T13:25:18;50.40;;;23.12;;
71566;SDS011;59403;47.456;19.120;2022-11-15T13:27:54;46.60;;;22.60;;
71566;SDS011;59403;47.456;19.120;2022-11-15T13:30:23;46.47;;;21.80;;
71566;SDS011;59403;47.456;19.120;2022-11-15T13:32:52;43.05;;;21.80;;
71566;SDS011;59403;47.456;19.120;2022-11-15T13:35:22;45.08;;;21.67;;
71566;SDS011;59403;47.456;19.120;2022-11-15T13:37:50;43.92;;;22.15;;
71566;SDS011;59403;47.456;19.120;2022-11-15T13:40:21;46.30;;;22.52;;
71566;SDS011;59403;47.456;19.120;2022-11-15T13:42:52;44.80;;;21.53;;
71566;SDS011;59403;47.456;19.120;2022-11-15T13:45:19;39.90;;;19.70;;
71566;SDS011;59403;47.456;19.120;2022-11-15T13:47:57;38.92;;;19.85;;
71566;SDS011;59403;47.456;19.120;2022-11-15T13:50:26;44.80;;;20.23;;
71566;SDS011;59403;47.456;19.120;2022-11-15T13:53:00;44.95;;;22.42;;
71566;SDS011;59403;47.456;19.120;2022-11-15T13:55:30;45.33;;;22.07;;
71566;SDS011;59403;47.456;19.120;2022-11-15T13:57:59;45.35;;;21.17;;
71566;SDS011;59403;47.456;19.120;2022-11-15T14:00:33;45.85;;;22.67;;
71566;SDS011;59403;47.456;19.120;2022-11-15T14:03:06;44.28;;;21.73;;
71566;SDS011;59403;47.456;19.120;2022-11-15T14:05:42;44.75;;;22.05;;
71566;SDS011;59403;47.456;19.120;2022-11-15T14:08:21;45.57;;;22.07;;
71566;SDS011;59403;47.456;19.120;2022-11-15T14:13:42;42.28;;;20.95;;
71566;SDS011;59403;47.456;19.120;2022-11-15T14:16:32;39.85;;;21.12;;
71566;SDS011;59403;47.456;19.120;2022-11-15T14:19:00;39.45;;;20.08;;
71566;SDS011;59403;47.456;19.120;2022-11-15T14:21:29;42.30;;;20.97;;
71566;SDS011;59403;47.456;19.120;2022-11-15T14:26:43;39.17;;;19.27;;
71566;SDS011;59403;47.456;19.120;2022-11-15T14:29:23;35.53;;;18.08;;
71566;SDS011;59403;47.456;19.120;2022-11-15T14:31:51;38.72;;;18.52;;
71566;SDS011;59403;47.456;19.120;2022-11-15T14:34:18;36.00;;;18.67;;
71566;SDS011;59403;47.456;19.120;2022-11-15T14:36:50;34.35;;;17.45;;
71566;SDS011;59403;47.456;19.120;2022-11-15T14:39:18;38.22;;;18.60;;
71566;SDS011;59403;47.456;19.120;2022-11-15T14:41:45;38.53;;;19.23;;
71566;SDS011;59403;47.456;19.120;2022-11-15T14:46:40;39.50;;;19.23;;
71566;SDS011;59403;47.456;19.120;2022-11-15T14:49:07;41.95;;;19.60;;
71566;SDS011;59403;47.456;19.120;2022-11-15T14:51:34;39.08;;;19.35;;
71566;SDS011;59403;47.456;19.120;2022-11-15T14:54:02;41.15;;;20.45;;
71566;SDS011;59403;47.456;19.120;2022-11-15T14:56:29;42.42;;;19.80;;
71566;SDS011;59403;47.456;19.120;2022-11-15T14:58:56;40.77;;;18.63;;
71566;SDS011;59403;47.456;19.120;2022-11-15T15:01:24;41.53;;;18.83;;
71566;SDS011;59403;47.456;19.120;2022-11-15T15:03:52;42.08;;;19.87;;
71566;SDS011;59403;47.456;19.120;2022-11-15T15:06:22;41.33;;;19.23;;
71566;SDS011;59403;47.456;19.120;2022-11-15T15:08:49;43.87;;;19.65;;
71566;SDS011;59403;47.456;19.120;2022-11-15T15:11:18;43.60;;;19.17;;
71566;SDS011;59403;47.456;19.120;2022-11-15T15:13:48;41.33;;;18.65;;
71566;SDS011;59403;47.456;19.120;2022-11-15T15:16:15;41.30;;;19.75;;
71566;SDS011;59403;47.456;19.120;2022-11-15T15:18:41;44.05;;;19.75;;
71566;SDS011;59403;47.456;19.120;2022-11-15T15:21:14;38.58;;;19.05;;
71566;SDS011;59403;47.456;19.120;2022-11-15T15:23:45;39.17;;;18.73;;
71566;SDS011;59403;47.456;19.120;2022-11-15T15:26:12;37.33;;;18.45;;
71566;SDS011;59403;47.456;19.120;2022-11-15T15:28:41;43.50;;;18.98;;
71566;SDS011;59403;47.456;19.120;2022-11-15T15:31:08;41.25;;;18.77;;
71566;SDS011;59403;47.456;19.120;2022-11-15T15:33:36;41.03;;;18.87;;
71566;SDS011;59403;47.456;19.120;2022-11-15T15:36:03;42.20;;;19.90;;
71566;SDS011;59403;47.456;19.120;2022-11-15T15:38:33;42.80;;;20.15;;
71566;SDS011;59403;47.456;19.120;2022-11-15T15:40:59;42.72;;;20.42;;
71566;SDS011;59403;47.456;19.120;2022-11-15T15:43:30;40.65;;;19.75;;
71566;SDS011;59403;47.456;19.120;2022-11-15T15:45:59;46.50;;;20.23;;
71566;SDS011;59403;47.456;19.120;2022-11-15T15:48:27;43.27;;;20.43;;
71566;SDS011;59403;47.456;19.120;2022-11-15T15:50:54;40.12;;;19.50;;
71566;SDS011;59403;47.456;19.120;2022-11-15T15:53:25;41.37;;;19.48;;
71566;SDS011;59403;47.456;19.120;2022-11-15T15:55:52;42.40;;;19.80;;
71566;SDS011;59403;47.456;19.120;2022-11-15T15:58:21;45.25;;;20.25;;
71566;SDS011;59403;47.456;19.120;2022-11-15T16:00:48;42.70;;;20.97;;
71566;SDS011;59403;47.456;19.120;2022-11-15T16:03:17;41.65;;;20.20;;
71566;SDS011;59403;47.456;19.120;2022-11-15T16:05:44;42.58;;;20.85;;
71566;SDS011;59403;47.456;19.120;2022-11-15T16:08:14;43.13;;;20.62;;
71566;SDS011;59403;47.456;19.120;2022-11-15T16:10:45;43.72;;;20.52;;
71566;SDS011;59403;47.456;19.120;2022-11-15T16:13:12;43.57;;;20.63;;
71566;SDS011;59403;47.456;19.120;2022-11-15T16:15:40;45.85;;;21.27;;
71566;SDS011;59403;47.456;19.120;2022-11-15T16:18:09;47.03;;;22.25;;
71566;SDS011;59403;47.456;19.120;2022-11-15T16:20:43;51.70;;;23.25;;
71566;SDS011;59403;47.456;19.120;2022-11-15T16:23:12;47.25;;;23.02;;
71566;SDS011;59403;47.456;19.120;2022-11-15T16:25:41;46.93;;;22.43;;
71566;SDS011;59403;47.456;19.120;2022-11-15T16:28:20;53.28;;;24.20;;
71566;SDS011;59403;47.456;19.120;2022-11-15T16:30:48;48.60;;;24.80;;
71566;SDS011;59403;47.456;19.120;2022-11-15T16:33:16;50.30;;;24.27;;
71566;SDS011;59403;47.456;19.120;2022-11-15T16:35:46;52.20;;;25.08;;
71566;SDS011;59403;47.456;19.120;2022-11-15T16:38:14;58.87;;;26.73;;
71566;SDS011;59403;47.456;19.120;2022-11-15T16:40:41;54.28;;;24.58;;
71566;SDS011;59403;47.456;19.120;2022-11-15T16:43:08;55.65;;;23.45;;
71566;SDS011;59403;47.456;19.120;2022-11-15T16:45:36;59.58;;;25.25;;
71566;SDS011;59403;47.456;19.120;2022-11-15T16:48:05;52.85;;;23.08;;
71566;SDS011;59403;47.456;19.120;2022-11-15T16:50:36;55.67;;;22.60;;
71566;SDS011;59403;47.456;19.120;2022-11-15T16:53:07;57.38;;;24.15;;
71566;SDS011;59403;47.456;19.120;2022-11-15T16:55:45;56.33;;;24.92;;
71566;SDS011;59403;47.456;19.120;2022-11-15T16:58:15;57.20;;;23.70;;
71566;SDS011;59403;47.456;19.120;2022-11-15T17:00:42;57.85;;;24.98;;
71566;SDS011;59403;47.456;19.120;2022-11-15T17:03:09;58.60;;;24.27;;
71566;SDS011;59403;47.456;19.120;2022-11-15T17:05:36;57.97;;;25.85;;
71566;SDS011;59403;47.456;19.120;2022-11-15T17:08:03;68.12;;;28.12;;
71566;SDS011;59403;47.456;19.120;2022-11-15T17:10:32;67.07;;;26.55;;
71566;SDS011;59403;47.456;19.120;2022-11-15T17:12:59;63.38;;;25.73;;
71566;SDS011;59403;47.456;19.120;2022-11-15T17:15:26;59.80;;;25.40;;
71566;SDS011;59403;47.456;19.120;2022-11-15T17:17:53;60.45;;;26.40;;
71566;SDS011;59403;47.456;19.120;2022-11-15T17:20:21;62.28;;;26.65;;
71566;SDS011;59403;47.456;19.120;2022-11-15T17:22:49;58.38;;;24.52;;
71566;SDS011;59403;47.456;19.120;2022-11-15T17:25:19;56.37;;;23.98;;
71566;SDS011;59403;47.456;19.120;2022-11-15T17:27:48;60.17;;;25.97;;
71566;SDS011;59403;47.456;19.120;2022-11-15T17:30:16;57.75;;;25.20;;
71566;SDS011;59403;47.456;19.120;2022-11-15T17:32:44;55.60;;;25.73;;
71566;SDS011;59403;47.456;19.120;2022-11-15T17:35:16;55.70;;;25.42;;
71566;SDS011;59403;47.456;19.120;2022-11-15T17:37:43;59.20;;;24.52;;
71566;SDS011;59403;47.456;19.120;2022-11-15T17:40:20;55.20;;;25.63;;
71566;SDS011;59403;47.456;19.120;2022-11-15T17:45:49;58.22;;;23.08;;
71566;SDS011;59403;47.456;19.120;2022-11-15T17:48:16;65.12;;;24.42;;
71566;SDS011;59403;47.456;19.120;2022-11-15T17:50:42;59.53;;;24.42;;
71566;SDS011;59403;47.456;19.120;2022-11-15T17:53:09;59.80;;;24.33;;
71566;SDS011;59403;47.456;19.120;2022-11-15T17:55:36;62.17;;;24.27;;
71566;SDS011;59403;47.456;19.120;2022-11-15T17:58:03;60.17;;;24.75;;
71566;SDS011;59403;47.456;19.120;2022-11-15T18:00:34;59.60;;;23.80;;
71566;SDS011;59403;47.456;19.120;2022-11-15T18:03:01;60.75;;;23.85;;
71566;SDS011;59403;47.456;19.120;2022-11-15T18:05:28;60.43;;;24.77;;
71566;SDS011;59403;47.456;19.120;2022-11-15T18:07:55;62.00;;;25.23;;
71566;SDS011;59403;47.456;19.120;2022-11-15T18:10:22;61.88;;;25.52;;
71566;SDS011;59403;47.456;19.120;2022-11-15T18:12:49;69.30;;;26.15;;
71566;SDS011;59403;47.456;19.120;2022-11-15T18:15:16;64.22;;;25.27;;
71566;SDS011;59403;47.456;19.120;2022-11-15T18:17:46;69.33;;;26.60;;
71566;SDS011;59403;47.456;19.120;2022-11-15T18:20:13;67.12;;;25.88;;
71566;SDS011;59403;47.456;19.120;2022-11-15T18:22:41;77.00;;;30.98;;
71566;SDS011;59403;47.456;19.120;2022-11-15T18:25:08;79.00;;;29.12;;
71566;SDS011;59403;47.456;19.120;2022-11-15T18:27:35;74.90;;;28.80;;
71566;SDS011;59403;47.456;19.120;2022-11-15T18:30:03;73.20;;;28.27;;
71566;SDS011;59403;47.456;19.120;2022-11-15T18:32:30;76.60;;;29.60;;
71566;SDS011;59403;47.456;19.120;2022-11-15T18:34:58;72.22;;;28.62;;
71566;SDS011;59403;47.456;19.120;2022-11-15T18:37:28;77.28;;;28.87;;
71566;SDS011;59403;47.456;19.120;2022-11-15T18:39:55;70.90;;;27.60;;
71566;SDS011;59403;47.456;19.120;2022-11-15T18:42:22;75.87;;;28.97;;
71566;SDS011;59403;47.456;19.120;2022-11-15T18:44:49;77.72;;;29.60;;
71566;SDS011;59403;47.456;19.120;2022-11-15T18:47:16;73.45;;;27.87;;
71566;SDS011;59403;47.456;19.120;2022-11-15T18:49:43;74.25;;;29.70;;
71566;SDS011;59403;47.456;19.120;2022-11-15T18:52:14;76.07;;;29.02;;
71566;SDS011;59403;47.456;19.120;2022-11-15T18:54:41;71.67;;;27.73;;
71566;SDS011;59403;47.456;19.120;2022-11-15T18:59:36;69.62;;;26.92;;
71566;SDS011;59403;47.456;19.120;2022-11-15T19:02:03;75.10;;;28.30;;
71566;SDS011;59403;47.456;19.120;2022-11-15T19:04:30;74.20;;;28.85;;
71566;SDS011;59403;47.456;19.120;2022-11-15T19:06:58;74.20;;;27.33;;